sensor_id;sensor_type;location;lat;lon;timestamp;temperature;humidity
3846;DHT22;1938;50.812;7.738;2023-07-22T00:01:37;11.70;1.00
3846;DHT22;1938;50.812;7.738;2023-07-22T00:04:02;11.70;1.00
3846;DHT22;1938;50.812;7.738;2023-07-22T00:06:28;11.70;50.20
3846;DHT22;1938;50.812;7.738;2023-07-22T00:08:54;11.60;99.60
3846;DHT22;1938;50.812;7.738;2023-07-22T00:11:19;11.60;99.90
3846;DHT22;1938;50.812;7.738;2023-07-22T00:13:45;11.60;99.90
3846;DHT22;1938;50.812;7.738;2023-07-22T00:16:11;11.50;99.90
3846;DHT22;1938;50.812;7.738;2023-07-22T00:18:36;11.50;99.90
3846;DHT22;1938;50.812;7.738;2023-07-22T00:21:02;11.50;99.90
3846;DHT22;1938;50.812;7.738;2023-07-22T00:23:27;11.50;99.90
3846;DHT22;1938;50.812;7.738;2023-07-22T00:25:53;11.40;99.90
3846;DHT22;1938;50.812;7.738;2023-07-22T00:28:19;11.40;99.90
3846;DHT22;1938;50.812;7.738;2023-07-22T00:30:44;11.40;99.90
3846;DHT22;1938;50.812;7.738;2023-07-22T00:33:10;11.40;99.90
3846;DHT22;1938;50.812;7.738;2023-07-22T00:35:35;11.40;99.90
3846;DHT22;1938;50.812;7.738;2023-07-22T00:38:01;11.40;99.90
3846;DHT22;1938;50.812;7.738;2023-07-22T00:40:27;11.40;99.90
3846;DHT22;1938;50.812;7.738;2023-07-22T00:42:53;11.40;99.90
3846;DHT22;1938;50.812;7.738;2023-07-22T00:45:18;11.40;99.90
3846;DHT22;1938;50.812;7.738;2023-07-22T00:47:44;11.30;99.90
3846;DHT22;1938;50.812;7.738;2023-07-22T00:50:10;11.30;99.90
3846;DHT22;1938;50.812;7.738;2023-07-22T00:52:39;11.30;99.90
3846;DHT22;1938;50.812;7.738;2023-07-22T00:55:05;11.30;99.90
3846;DHT22;1938;50.812;7.738;2023-07-22T00:57:32;11.30;99.90
3846;DHT22;1938;50.812;7.738;2023-07-22T00:59:57;11.20;99.90
3846;DHT22;1938;50.812;7.738;2023-07-22T01:02:24;11.20;99.90
3846;DHT22;1938;50.812;7.738;2023-07-22T01:04:50;11.20;90.30
3846;DHT22;1938;50.812;7.738;2023-07-22T01:07:17;11.20;79.60
3846;DHT22;1938;50.812;7.738;2023-07-22T01:09:43;11.20;61.10
3846;DHT22;1938;50.812;7.738;2023-07-22T01:12:10;11.20;99.80
3846;DHT22;1938;50.812;7.738;2023-07-22T01:14:37;11.20;99.90
3846;DHT22;1938;50.812;7.738;2023-07-22T01:17:05;11.20;99.90
3846;DHT22;1938;50.812;7.738;2023-07-22T01:19:32;11.20;97.00
3846;DHT22;1938;50.812;7.738;2023-07-22T01:22:00;11.10;60.00
3846;DHT22;1938;50.812;7.738;2023-07-22T01:24:27;11.10;53.80
3846;DHT22;1938;50.812;7.738;2023-07-22T01:26:52;11.10;42.40
3846;DHT22;1938;50.812;7.738;2023-07-22T01:29:18;11.10;58.40
3846;DHT22;1938;50.812;7.738;2023-07-22T01:31:47;11.10;85.00
3846;DHT22;1938;50.812;7.738;2023-07-22T01:34:13;11.10;97.30
3846;DHT22;1938;50.812;7.738;2023-07-22T01:36:38;11.00;99.90
3846;DHT22;1938;50.812;7.738;2023-07-22T01:39:05;11.00;99.90
3846;DHT22;1938;50.812;7.738;2023-07-22T01:41:33;11.00;99.90
3846;DHT22;1938;50.812;7.738;2023-07-22T01:43:59;11.00;99.90
3846;DHT22;1938;50.812;7.738;2023-07-22T01:46:25;10.90;99.90
3846;DHT22;1938;50.812;7.738;2023-07-22T01:48:50;10.90;99.90
3846;DHT22;1938;50.812;7.738;2023-07-22T01:51:17;10.80;99.90
3846;DHT22;1938;50.812;7.738;2023-07-22T01:53:43;10.80;99.90
3846;DHT22;1938;50.812;7.738;2023-07-22T01:56:08;10.70;99.90
3846;DHT22;1938;50.812;7.738;2023-07-22T01:58:34;10.70;99.90
3846;DHT22;1938;50.812;7.738;2023-07-22T02:00:59;10.70;99.90
3846;DHT22;1938;50.812;7.738;2023-07-22T02:03:25;10.70;90.00
3846;DHT22;1938;50.812;7.738;2023-07-22T02:05:50;10.70;93.40
3846;DHT22;1938;50.812;7.738;2023-07-22T02:08:16;10.70;83.30
3846;DHT22;1938;50.812;7.738;2023-07-22T02:10:41;10.60;51.40
3846;DHT22;1938;50.812;7.738;2023-07-22T02:13:07;10.60;34.70
3846;DHT22;1938;50.812;7.738;2023-07-22T02:15:33;10.50;34.30
3846;DHT22;1938;50.812;7.738;2023-07-22T02:17:58;10.50;27.40
3846;DHT22;1938;50.812;7.738;2023-07-22T02:20:24;10.50;99.90
3846;DHT22;1938;50.812;7.738;2023-07-22T02:22:52;10.50;99.90
3846;DHT22;1938;50.812;7.738;2023-07-22T02:25:18;10.40;99.90
3846;DHT22;1938;50.812;7.738;2023-07-22T02:27:43;10.40;99.90
3846;DHT22;1938;50.812;7.738;2023-07-22T02:30:09;10.40;99.90
3846;DHT22;1938;50.812;7.738;2023-07-22T02:32:40;10.30;99.90
3846;DHT22;1938;50.812;7.738;2023-07-22T02:35:07;10.30;99.90
3846;DHT22;1938;50.812;7.738;2023-07-22T02:37:34;10.30;99.90
3846;DHT22;1938;50.812;7.738;2023-07-22T02:40:00;10.30;99.90
3846;DHT22;1938;50.812;7.738;2023-07-22T02:42:25;10.20;99.90
3846;DHT22;1938;50.812;7.738;2023-07-22T02:44:51;10.20;99.90
3846;DHT22;1938;50.812;7.738;2023-07-22T02:47:17;10.20;99.90
3846;DHT22;1938;50.812;7.738;2023-07-22T02:49:43;10.20;99.90
3846;DHT22;1938;50.812;7.738;2023-07-22T02:52:09;10.10;77.30
3846;DHT22;1938;50.812;7.738;2023-07-22T02:54:39;10.10;16.10
3846;DHT22;1938;50.812;7.738;2023-07-22T02:57:05;10.10;16.10
3846;DHT22;1938;50.812;7.738;2023-07-22T02:59:32;10.10;30.00
3846;DHT22;1938;50.812;7.738;2023-07-22T03:01:57;10.10;74.10
3846;DHT22;1938;50.812;7.738;2023-07-22T03:04:23;10.10;99.90
3846;DHT22;1938;50.812;7.738;2023-07-22T03:06:48;10.10;99.90
3846;DHT22;1938;50.812;7.738;2023-07-22T03:09:15;10.00;99.90
3846;DHT22;1938;50.812;7.738;2023-07-22T03:11:40;10.10;99.90
3846;DHT22;1938;50.812;7.738;2023-07-22T03:14:06;10.10;99.90
3846;DHT22;1938;50.812;7.738;2023-07-22T03:16:31;10.10;99.90
3846;DHT22;1938;50.812;7.738;2023-07-22T03:18:57;10.10;99.90
3846;DHT22;1938;50.812;7.738;2023-07-22T03:21:23;10.10;99.90
3846;DHT22;1938;50.812;7.738;2023-07-22T03:23:48;10.00;99.90
3846;DHT22;1938;50.812;7.738;2023-07-22T03:26:14;10.00;99.90
3846;DHT22;1938;50.812;7.738;2023-07-22T03:28:40;10.00;99.90
3846;DHT22;1938;50.812;7.738;2023-07-22T03:31:07;10.10;99.90
3846;DHT22;1938;50.812;7.738;2023-07-22T03:33:33;10.00;99.90
3846;DHT22;1938;50.812;7.738;2023-07-22T03:36:00;10.00;99.90
3846;DHT22;1938;50.812;7.738;2023-07-22T03:38:26;10.00;99.90
3846;DHT22;1938;50.812;7.738;2023-07-22T03:40:51;10.00;99.90
3846;DHT22;1938;50.812;7.738;2023-07-22T03:43:19;10.00;99.90
3846;DHT22;1938;50.812;7.738;2023-07-22T03:45:45;10.00;99.90
3846;DHT22;1938;50.812;7.738;2023-07-22T03:48:11;10.10;99.90
3846;DHT22;1938;50.812;7.738;2023-07-22T03:50:36;10.10;99.90
3846;DHT22;1938;50.812;7.738;2023-07-22T03:53:02;10.10;99.90
3846;DHT22;1938;50.812;7.738;2023-07-22T03:55:27;10.10;99.90
3846;DHT22;1938;50.812;7.738;2023-07-22T03:57:53;10.10;99.90
3846;DHT22;1938;50.812;7.738;2023-07-22T04:00:19;10.00;99.90
3846;DHT22;1938;50.812;7.738;2023-07-22T04:02:45;10.00;69.40
3846;DHT22;1938;50.812;7.738;2023-07-22T04:05:11;10.00;1.00
3846;DHT22;1938;50.812;7.738;2023-07-22T04:07:37;10.10;1.00
3846;DHT22;1938;50.812;7.738;2023-07-22T04:10:03;10.20;1.00
3846;DHT22;1938;50.812;7.738;2023-07-22T04:12:29;10.30;1.00
3846;DHT22;1938;50.812;7.738;2023-07-22T04:14:54;10.60;1.00
3846;DHT22;1938;50.812;7.738;2023-07-22T04:17:20;10.90;1.00
3846;DHT22;1938;50.812;7.738;2023-07-22T04:19:45;11.00;1.00
3846;DHT22;1938;50.812;7.738;2023-07-22T04:22:11;10.90;1.00
3846;DHT22;1938;50.812;7.738;2023-07-22T04:24:37;11.30;1.00
3846;DHT22;1938;50.812;7.738;2023-07-22T04:27:03;11.80;1.00
3846;DHT22;1938;50.812;7.738;2023-07-22T04:29:28;12.40;97.50
3846;DHT22;1938;50.812;7.738;2023-07-22T04:31:58;13.10;1.00
3846;DHT22;1938;50.812;7.738;2023-07-22T04:34:25;14.50;99.90
3846;DHT22;1938;50.812;7.738;2023-07-22T04:36:51;15.50;99.90
3846;DHT22;1938;50.812;7.738;2023-07-22T04:39:16;16.10;1.00
3846;DHT22;1938;50.812;7.738;2023-07-22T04:41:43;16.70;1.00
3846;DHT22;1938;50.812;7.738;2023-07-22T04:44:08;17.90;1.00
3846;DHT22;1938;50.812;7.738;2023-07-22T04:46:34;18.60;99.90
3846;DHT22;1938;50.812;7.738;2023-07-22T04:49:00;19.30;99.90
3846;DHT22;1938;50.812;7.738;2023-07-22T04:51:26;20.50;99.90
3846;DHT22;1938;50.812;7.738;2023-07-22T04:53:52;21.80;99.90
3846;DHT22;1938;50.812;7.738;2023-07-22T04:56:18;22.60;99.90
3846;DHT22;1938;50.812;7.738;2023-07-22T04:58:43;23.10;99.90
3846;DHT22;1938;50.812;7.738;2023-07-22T05:01:09;23.90;99.90
3846;DHT22;1938;50.812;7.738;2023-07-22T05:03:35;24.80;99.90
3846;DHT22;1938;50.812;7.738;2023-07-22T05:06:01;25.00;99.90
3846;DHT22;1938;50.812;7.738;2023-07-22T05:08:27;25.60;99.90
3846;DHT22;1938;50.812;7.738;2023-07-22T05:10:52;26.10;99.90
3846;DHT22;1938;50.812;7.738;2023-07-22T05:13:18;26.00;99.90
3846;DHT22;1938;50.812;7.738;2023-07-22T05:15:45;25.40;99.90
3846;DHT22;1938;50.812;7.738;2023-07-22T05:18:11;26.10;99.90
3846;DHT22;1938;50.812;7.738;2023-07-22T05:20:38;26.20;99.90
3846;DHT22;1938;50.812;7.738;2023-07-22T05:23:04;27.50;99.90
3846;DHT22;1938;50.812;7.738;2023-07-22T05:25:29;29.10;99.90
3846;DHT22;1938;50.812;7.738;2023-07-22T05:27:55;29.90;99.90
3846;DHT22;1938;50.812;7.738;2023-07-22T05:30:20;31.10;99.90
3846;DHT22;1938;50.812;7.738;2023-07-22T05:32:46;31.60;99.90
3846;DHT22;1938;50.812;7.738;2023-07-22T05:35:12;32.80;99.90
3846;DHT22;1938;50.812;7.738;2023-07-22T05:37:38;33.10;99.90
3846;DHT22;1938;50.812;7.738;2023-07-22T05:40:04;33.20;99.90
3846;DHT22;1938;50.812;7.738;2023-07-22T05:42:30;33.60;99.90
3846;DHT22;1938;50.812;7.738;2023-07-22T05:44:57;33.30;99.90
3846;DHT22;1938;50.812;7.738;2023-07-22T05:47:22;34.30;99.90
3846;DHT22;1938;50.812;7.738;2023-07-22T05:49:48;34.40;99.90
3846;DHT22;1938;50.812;7.738;2023-07-22T05:52:14;33.60;99.90
3846;DHT22;1938;50.812;7.738;2023-07-22T05:54:39;34.40;99.90
3846;DHT22;1938;50.812;7.738;2023-07-22T05:57:05;34.30;99.90
3846;DHT22;1938;50.812;7.738;2023-07-22T05:59:31;33.70;99.90
3846;DHT22;1938;50.812;7.738;2023-07-22T06:01:57;31.10;99.90
3846;DHT22;1938;50.812;7.738;2023-07-22T06:04:23;32.20;99.90
3846;DHT22;1938;50.812;7.738;2023-07-22T06:06:49;34.40;99.90
3846;DHT22;1938;50.812;7.738;2023-07-22T06:09:15;36.10;99.90
3846;DHT22;1938;50.812;7.738;2023-07-22T06:11:41;36.80;99.90
3846;DHT22;1938;50.812;7.738;2023-07-22T06:14:07;37.10;99.90
3846;DHT22;1938;50.812;7.738;2023-07-22T06:16:33;36.40;99.90
3846;DHT22;1938;50.812;7.738;2023-07-22T06:18:59;36.50;99.90
3846;DHT22;1938;50.812;7.738;2023-07-22T06:21:25;36.60;99.90
3846;DHT22;1938;50.812;7.738;2023-07-22T06:23:51;37.40;99.90
3846;DHT22;1938;50.812;7.738;2023-07-22T06:26:16;37.70;99.90
3846;DHT22;1938;50.812;7.738;2023-07-22T06:28:42;36.50;99.90
3846;DHT22;1938;50.812;7.738;2023-07-22T06:31:07;36.20;99.90
3846;DHT22;1938;50.812;7.738;2023-07-22T06:33:33;34.70;99.90
3846;DHT22;1938;50.812;7.738;2023-07-22T06:35:59;33.60;99.90
3846;DHT22;1938;50.812;7.738;2023-07-22T06:38:25;33.70;99.90
3846;DHT22;1938;50.812;7.738;2023-07-22T06:40:54;34.10;99.90
3846;DHT22;1938;50.812;7.738;2023-07-22T06:43:19;33.10;99.90
3846;DHT22;1938;50.812;7.738;2023-07-22T06:45:45;33.60;99.90
3846;DHT22;1938;50.812;7.738;2023-07-22T06:48:10;33.40;99.90
3846;DHT22;1938;50.812;7.738;2023-07-22T06:50:37;33.20;99.90
3846;DHT22;1938;50.812;7.738;2023-07-22T06:53:02;32.70;99.90
3846;DHT22;1938;50.812;7.738;2023-07-22T06:55:29;33.10;99.90
3846;DHT22;1938;50.812;7.738;2023-07-22T06:57:58;33.20;99.90
3846;DHT22;1938;50.812;7.738;2023-07-22T07:00:25;33.70;99.90
3846;DHT22;1938;50.812;7.738;2023-07-22T07:02:50;33.70;99.90
3846;DHT22;1938;50.812;7.738;2023-07-22T07:05:16;34.70;99.90
3846;DHT22;1938;50.812;7.738;2023-07-22T07:07:42;34.70;99.90
3846;DHT22;1938;50.812;7.738;2023-07-22T07:10:08;34.20;99.90
3846;DHT22;1938;50.812;7.738;2023-07-22T07:12:34;34.60;99.90
3846;DHT22;1938;50.812;7.738;2023-07-22T07:15:00;34.90;99.90
3846;DHT22;1938;50.812;7.738;2023-07-22T07:17:25;35.40;99.90
3846;DHT22;1938;50.812;7.738;2023-07-22T07:19:51;35.80;99.90
3846;DHT22;1938;50.812;7.738;2023-07-22T07:22:16;35.80;99.90
3846;DHT22;1938;50.812;7.738;2023-07-22T07:24:43;36.00;99.90
3846;DHT22;1938;50.812;7.738;2023-07-22T07:27:09;36.60;99.90
3846;DHT22;1938;50.812;7.738;2023-07-22T07:29:34;36.50;99.90
3846;DHT22;1938;50.812;7.738;2023-07-22T07:32:00;37.30;99.90
3846;DHT22;1938;50.812;7.738;2023-07-22T07:34:25;37.20;99.90
3846;DHT22;1938;50.812;7.738;2023-07-22T07:36:51;37.90;99.90
3846;DHT22;1938;50.812;7.738;2023-07-22T07:39:16;38.10;99.90
3846;DHT22;1938;50.812;7.738;2023-07-22T07:41:42;38.30;99.90
3846;DHT22;1938;50.812;7.738;2023-07-22T07:44:08;38.30;99.90
3846;DHT22;1938;50.812;7.738;2023-07-22T07:46:33;39.10;99.90
3846;DHT22;1938;50.812;7.738;2023-07-22T07:49:00;39.80;99.90
3846;DHT22;1938;50.812;7.738;2023-07-22T07:51:29;40.00;99.90
3846;DHT22;1938;50.812;7.738;2023-07-22T07:53:56;39.70;99.90
3846;DHT22;1938;50.812;7.738;2023-07-22T07:56:22;38.90;99.90
3846;DHT22;1938;50.812;7.738;2023-07-22T07:58:49;38.50;99.90
3846;DHT22;1938;50.812;7.738;2023-07-22T08:01:15;38.00;99.90
3846;DHT22;1938;50.812;7.738;2023-07-22T08:03:42;38.10;99.90
3846;DHT22;1938;50.812;7.738;2023-07-22T08:06:09;38.30;99.90
3846;DHT22;1938;50.812;7.738;2023-07-22T08:08:36;38.90;99.90
3846;DHT22;1938;50.812;7.738;2023-07-22T08:11:10;38.60;99.90
3846;DHT22;1938;50.812;7.738;2023-07-22T08:13:39;38.40;99.90
3846;DHT22;1938;50.812;7.738;2023-07-22T08:16:07;37.90;99.90
3846;DHT22;1938;50.812;7.738;2023-07-22T08:18:34;37.40;99.90
3846;DHT22;1938;50.812;7.738;2023-07-22T08:21:01;37.20;99.90
3846;DHT22;1938;50.812;7.738;2023-07-22T08:23:28;36.90;99.90
3846;DHT22;1938;50.812;7.738;2023-07-22T08:25:54;37.70;99.90
3846;DHT22;1938;50.812;7.738;2023-07-22T08:28:19;37.40;99.90
3846;DHT22;1938;50.812;7.738;2023-07-22T08:30:45;36.50;99.90
3846;DHT22;1938;50.812;7.738;2023-07-22T08:33:11;35.90;99.90
3846;DHT22;1938;50.812;7.738;2023-07-22T08:35:38;36.40;99.90
3846;DHT22;1938;50.812;7.738;2023-07-22T08:38:05;36.00;99.90
3846;DHT22;1938;50.812;7.738;2023-07-22T08:40:34;36.30;99.90
3846;DHT22;1938;50.812;7.738;2023-07-22T08:43:03;36.00;99.90
3846;DHT22;1938;50.812;7.738;2023-07-22T08:45:30;36.10;99.90
3846;DHT22;1938;50.812;7.738;2023-07-22T08:47:58;36.20;99.90
3846;DHT22;1938;50.812;7.738;2023-07-22T08:50:30;36.00;99.90
3846;DHT22;1938;50.812;7.738;2023-07-22T08:52:56;35.60;99.90
3846;DHT22;1938;50.812;7.738;2023-07-22T08:55:23;34.80;99.90
3846;DHT22;1938;50.812;7.738;2023-07-22T08:57:50;33.80;99.90
3846;DHT22;1938;50.812;7.738;2023-07-22T09:00:17;33.30;99.90
3846;DHT22;1938;50.812;7.738;2023-07-22T09:02:43;33.00;99.90
3846;DHT22;1938;50.812;7.738;2023-07-22T09:05:10;33.30;99.90
3846;DHT22;1938;50.812;7.738;2023-07-22T09:07:37;33.70;99.90
3846;DHT22;1938;50.812;7.738;2023-07-22T09:10:05;33.70;99.90
3846;DHT22;1938;50.812;7.738;2023-07-22T09:12:31;33.40;99.90
3846;DHT22;1938;50.812;7.738;2023-07-22T09:14:57;32.90;99.90
3846;DHT22;1938;50.812;7.738;2023-07-22T09:17:23;31.90;99.90
3846;DHT22;1938;50.812;7.738;2023-07-22T09:19:52;31.20;99.90
3846;DHT22;1938;50.812;7.738;2023-07-22T09:22:25;30.20;99.90
3846;DHT22;1938;50.812;7.738;2023-07-22T09:24:51;29.60;99.90
3846;DHT22;1938;50.812;7.738;2023-07-22T09:27:32;28.80;99.90
3846;DHT22;1938;50.812;7.738;2023-07-22T09:29:59;28.00;99.90
3846;DHT22;1938;50.812;7.738;2023-07-22T09:32:52;27.80;99.90
3846;DHT22;1938;50.812;7.738;2023-07-22T09:35:29;27.60;99.90
3846;DHT22;1938;50.812;7.738;2023-07-22T09:37:55;27.30;99.90
3846;DHT22;1938;50.812;7.738;2023-07-22T09:40:26;27.10;99.90
3846;DHT22;1938;50.812;7.738;2023-07-22T09:42:56;26.90;99.90
3846;DHT22;1938;50.812;7.738;2023-07-22T09:45:25;26.70;99.90
3846;DHT22;1938;50.812;7.738;2023-07-22T09:47:54;26.80;99.90
3846;DHT22;1938;50.812;7.738;2023-07-22T09:50:22;26.80;99.90
3846;DHT22;1938;50.812;7.738;2023-07-22T09:55:21;26.60;99.90
3846;DHT22;1938;50.812;7.738;2023-07-22T09:57:52;26.40;99.90
3846;DHT22;1938;50.812;7.738;2023-07-22T10:00:18;26.10;99.90
3846;DHT22;1938;50.812;7.738;2023-07-22T10:02:48;26.10;99.90
3846;DHT22;1938;50.812;7.738;2023-07-22T10:05:18;26.00;99.90
3846;DHT22;1938;50.812;7.738;2023-07-22T10:07:50;25.90;99.90
3846;DHT22;1938;50.812;7.738;2023-07-22T10:10:19;26.10;99.90
3846;DHT22;1938;50.812;7.738;2023-07-22T10:12:45;26.30;99.90
3846;DHT22;1938;50.812;7.738;2023-07-22T10:15:15;26.40;99.90
3846;DHT22;1938;50.812;7.738;2023-07-22T10:17:43;26.30;99.90
3846;DHT22;1938;50.812;7.738;2023-07-22T10:20:10;26.60;99.90
3846;DHT22;1938;50.812;7.738;2023-07-22T10:22:44;26.80;99.90
3846;DHT22;1938;50.812;7.738;2023-07-22T10:25:20;26.90;99.90
3846;DHT22;1938;50.812;7.738;2023-07-22T10:27:47;26.80;99.90
3846;DHT22;1938;50.812;7.738;2023-07-22T10:30:15;26.80;99.90
3846;DHT22;1938;50.812;7.738;2023-07-22T10:32:45;26.60;99.90
3846;DHT22;1938;50.812;7.738;2023-07-22T10:35:17;26.60;99.90
3846;DHT22;1938;50.812;7.738;2023-07-22T10:37:45;26.80;99.90
3846;DHT22;1938;50.812;7.738;2023-07-22T10:43:11;26.20;99.90
3846;DHT22;1938;50.812;7.738;2023-07-22T10:45:41;26.00;99.90
3846;DHT22;1938;50.812;7.738;2023-07-22T10:48:08;25.90;99.90
3846;DHT22;1938;50.812;7.738;2023-07-22T10:50:51;25.60;99.90
3846;DHT22;1938;50.812;7.738;2023-07-22T10:53:30;25.60;99.90
3846;DHT22;1938;50.812;7.738;2023-07-22T10:56:18;25.50;99.90
3846;DHT22;1938;50.812;7.738;2023-07-22T11:06:35;25.70;99.90
3846;DHT22;1938;50.812;7.738;2023-07-22T11:09:01;25.80;99.90
3846;DHT22;1938;50.812;7.738;2023-07-22T11:11:39;26.10;99.90
3846;DHT22;1938;50.812;7.738;2023-07-22T11:14:18;26.30;99.90
3846;DHT22;1938;50.812;7.738;2023-07-22T11:16:46;26.20;99.90
3846;DHT22;1938;50.812;7.738;2023-07-22T11:19:13;26.20;99.90
3846;DHT22;1938;50.812;7.738;2023-07-22T11:21:39;26.20;99.90
3846;DHT22;1938;50.812;7.738;2023-07-22T11:24:06;26.30;99.90
3846;DHT22;1938;50.812;7.738;2023-07-22T11:26:32;26.40;99.90
3846;DHT22;1938;50.812;7.738;2023-07-22T11:29:00;26.50;99.90
3846;DHT22;1938;50.812;7.738;2023-07-22T11:31:36;26.50;99.90
3846;DHT22;1938;50.812;7.738;2023-07-22T11:34:05;26.60;99.90
3846;DHT22;1938;50.812;7.738;2023-07-22T11:36:31;26.70;99.90
3846;DHT22;1938;50.812;7.738;2023-07-22T11:41:32;26.60;99.90
3846;DHT22;1938;50.812;7.738;2023-07-22T11:43:59;26.60;99.90
3846;DHT22;1938;50.812;7.738;2023-07-22T11:46:26;26.40;99.90
3846;DHT22;1938;50.812;7.738;2023-07-22T11:48:55;26.40;99.90
3846;DHT22;1938;50.812;7.738;2023-07-22T11:51:25;26.40;99.90
3846;DHT22;1938;50.812;7.738;2023-07-22T11:53:53;26.60;99.90
3846;DHT22;1938;50.812;7.738;2023-07-22T11:56:22;26.70;99.90
3846;DHT22;1938;50.812;7.738;2023-07-22T11:58:51;26.80;99.90
3846;DHT22;1938;50.812;7.738;2023-07-22T12:01:17;27.00;99.90
3846;DHT22;1938;50.812;7.738;2023-07-22T12:03:43;26.90;99.90
3846;DHT22;1938;50.812;7.738;2023-07-22T12:06:08;26.90;99.90
3846;DHT22;1938;50.812;7.738;2023-07-22T12:08:34;27.00;99.90
3846;DHT22;1938;50.812;7.738;2023-07-22T12:11:01;27.00;99.90
3846;DHT22;1938;50.812;7.738;2023-07-22T12:13:27;27.00;99.90
3846;DHT22;1938;50.812;7.738;2023-07-22T12:16:05;27.00;99.90
3846;DHT22;1938;50.812;7.738;2023-07-22T12:18:44;27.00;99.90
3846;DHT22;1938;50.812;7.738;2023-07-22T12:21:10;27.10;99.90
3846;DHT22;1938;50.812;7.738;2023-07-22T12:23:36;27.10;99.90
3846;DHT22;1938;50.812;7.738;2023-07-22T12:26:03;27.00;99.90
3846;DHT22;1938;50.812;7.738;2023-07-22T12:28:29;26.90;99.90
3846;DHT22;1938;50.812;7.738;2023-07-22T12:30:54;27.00;99.90
3846;DHT22;1938;50.812;7.738;2023-07-22T12:33:25;26.90;99.90
3846;DHT22;1938;50.812;7.738;2023-07-22T12:35:53;26.70;99.90
3846;DHT22;1938;50.812;7.738;2023-07-22T12:38:18;26.50;99.90
3846;DHT22;1938;50.812;7.738;2023-07-22T12:40:44;26.40;99.90
3846;DHT22;1938;50.812;7.738;2023-07-22T12:43:10;26.40;99.90
3846;DHT22;1938;50.812;7.738;2023-07-22T12:45:36;26.30;99.90
3846;DHT22;1938;50.812;7.738;2023-07-22T12:48:01;26.20;99.90
3846;DHT22;1938;50.812;7.738;2023-07-22T12:50:29;26.20;99.90
3846;DHT22;1938;50.812;7.738;2023-07-22T12:52:56;26.30;99.90
3846;DHT22;1938;50.812;7.738;2023-07-22T12:55:22;26.30;99.90
3846;DHT22;1938;50.812;7.738;2023-07-22T12:57:47;26.30;99.90
3846;DHT22;1938;50.812;7.738;2023-07-22T13:00:13;26.30;99.90
3846;DHT22;1938;50.812;7.738;2023-07-22T13:02:39;26.40;99.90
3846;DHT22;1938;50.812;7.738;2023-07-22T13:05:05;26.30;99.90
3846;DHT22;1938;50.812;7.738;2023-07-22T13:07:32;26.10;99.90
3846;DHT22;1938;50.812;7.738;2023-07-22T13:09:57;26.10;99.90
3846;DHT22;1938;50.812;7.738;2023-07-22T13:12:25;26.00;99.90
3846;DHT22;1938;50.812;7.738;2023-07-22T13:14:51;26.10;99.90
3846;DHT22;1938;50.812;7.738;2023-07-22T13:17:18;26.10;99.90
3846;DHT22;1938;50.812;7.738;2023-07-22T13:19:43;26.10;99.90
3846;DHT22;1938;50.812;7.738;2023-07-22T13:22:09;26.00;99.90
3846;DHT22;1938;50.812;7.738;2023-07-22T13:24:34;25.90;99.90
3846;DHT22;1938;50.812;7.738;2023-07-22T13:27:00;25.80;99.90
3846;DHT22;1938;50.812;7.738;2023-07-22T13:29:26;25.80;99.90
3846;DHT22;1938;50.812;7.738;2023-07-22T13:31:53;25.70;99.90
3846;DHT22;1938;50.812;7.738;2023-07-22T13:34:19;25.50;99.90
3846;DHT22;1938;50.812;7.738;2023-07-22T13:36:46;25.30;99.90
3846;DHT22;1938;50.812;7.738;2023-07-22T13:39:11;25.20;99.90
3846;DHT22;1938;50.812;7.738;2023-07-22T13:41:37;25.10;99.90
3846;DHT22;1938;50.812;7.738;2023-07-22T13:44:03;25.10;99.90
3846;DHT22;1938;50.812;7.738;2023-07-22T13:46:28;25.20;99.90
3846;DHT22;1938;50.812;7.738;2023-07-22T13:48:55;25.20;99.90
3846;DHT22;1938;50.812;7.738;2023-07-22T13:51:20;25.20;99.90
3846;DHT22;1938;50.812;7.738;2023-07-22T13:53:46;25.20;99.90
3846;DHT22;1938;50.812;7.738;2023-07-22T13:56:12;25.20;99.90
3846;DHT22;1938;50.812;7.738;2023-07-22T13:58:38;25.20;99.90
3846;DHT22;1938;50.812;7.738;2023-07-22T14:01:04;25.30;99.90
3846;DHT22;1938;50.812;7.738;2023-07-22T14:03:29;25.50;99.90
3846;DHT22;1938;50.812;7.738;2023-07-22T14:05:55;25.50;99.90
3846;DHT22;1938;50.812;7.738;2023-07-22T14:08:21;25.50;99.90
3846;DHT22;1938;50.812;7.738;2023-07-22T14:10:47;25.40;99.90
3846;DHT22;1938;50.812;7.738;2023-07-22T14:13:12;25.50;99.90
3846;DHT22;1938;50.812;7.738;2023-07-22T14:15:38;25.60;99.90
3846;DHT22;1938;50.812;7.738;2023-07-22T14:18:05;25.60;99.90
3846;DHT22;1938;50.812;7.738;2023-07-22T14:20:31;25.50;99.90
3846;DHT22;1938;50.812;7.738;2023-07-22T14:22:57;25.60;99.90
3846;DHT22;1938;50.812;7.738;2023-07-22T14:25:23;25.70;99.90
3846;DHT22;1938;50.812;7.738;2023-07-22T14:27:48;25.70;99.90
3846;DHT22;1938;50.812;7.738;2023-07-22T14:30:14;25.90;99.90
3846;DHT22;1938;50.812;7.738;2023-07-22T14:32:40;25.80;99.90
3846;DHT22;1938;50.812;7.738;2023-07-22T14:35:05;25.80;99.90
3846;DHT22;1938;50.812;7.738;2023-07-22T14:37:31;25.90;99.90
3846;DHT22;1938;50.812;7.738;2023-07-22T14:39:58;25.90;99.90
3846;DHT22;1938;50.812;7.738;2023-07-22T14:42:24;25.80;99.90
3846;DHT22;1938;50.812;7.738;2023-07-22T14:44:49;25.60;99.90
3846;DHT22;1938;50.812;7.738;2023-07-22T14:47:15;25.50;99.90
3846;DHT22;1938;50.812;7.738;2023-07-22T14:49:40;25.50;99.90
3846;DHT22;1938;50.812;7.738;2023-07-22T14:52:06;25.40;99.90
3846;DHT22;1938;50.812;7.738;2023-07-22T14:54:33;25.40;99.90
3846;DHT22;1938;50.812;7.738;2023-07-22T14:56:58;25.40;99.90
3846;DHT22;1938;50.812;7.738;2023-07-22T14:59:24;25.30;99.90
3846;DHT22;1938;50.812;7.738;2023-07-22T15:01:51;25.30;99.90
3846;DHT22;1938;50.812;7.738;2023-07-22T15:04:18;25.30;99.90
3846;DHT22;1938;50.812;7.738;2023-07-22T15:06:44;25.30;99.90
3846;DHT22;1938;50.812;7.738;2023-07-22T15:09:09;25.30;99.90
3846;DHT22;1938;50.812;7.738;2023-07-22T15:11:36;25.30;99.90
3846;DHT22;1938;50.812;7.738;2023-07-22T15:14:05;25.40;99.90
3846;DHT22;1938;50.812;7.738;2023-07-22T15:16:31;25.30;99.90
3846;DHT22;1938;50.812;7.738;2023-07-22T15:18:58;25.30;99.90
3846;DHT22;1938;50.812;7.738;2023-07-22T15:21:24;25.40;99.90
3846;DHT22;1938;50.812;7.738;2023-07-22T15:23:50;25.40;99.90
3846;DHT22;1938;50.812;7.738;2023-07-22T15:26:15;25.50;99.90
3846;DHT22;1938;50.812;7.738;2023-07-22T15:28:41;25.40;99.90
3846;DHT22;1938;50.812;7.738;2023-07-22T15:31:07;25.30;99.90
3846;DHT22;1938;50.812;7.738;2023-07-22T15:33:34;25.40;99.90
3846;DHT22;1938;50.812;7.738;2023-07-22T15:36:02;25.30;99.90
3846;DHT22;1938;50.812;7.738;2023-07-22T15:38:28;25.30;99.90
3846;DHT22;1938;50.812;7.738;2023-07-22T15:40:55;25.20;99.90
3846;DHT22;1938;50.812;7.738;2023-07-22T15:43:21;25.10;99.90
3846;DHT22;1938;50.812;7.738;2023-07-22T15:45:46;25.00;99.90
3846;DHT22;1938;50.812;7.738;2023-07-22T15:48:12;24.90;99.90
3846;DHT22;1938;50.812;7.738;2023-07-22T15:50:37;24.90;99.90
3846;DHT22;1938;50.812;7.738;2023-07-22T15:53:03;24.80;99.90
3846;DHT22;1938;50.812;7.738;2023-07-22T15:55:28;24.80;99.90
3846;DHT22;1938;50.812;7.738;2023-07-22T15:57:54;24.80;99.90
3846;DHT22;1938;50.812;7.738;2023-07-22T16:00:21;24.80;99.90
3846;DHT22;1938;50.812;7.738;2023-07-22T16:02:47;24.80;99.90
3846;DHT22;1938;50.812;7.738;2023-07-22T16:05:13;24.80;99.90
3846;DHT22;1938;50.812;7.738;2023-07-22T16:07:38;24.90;99.90
3846;DHT22;1938;50.812;7.738;2023-07-22T16:10:05;24.90;99.90
3846;DHT22;1938;50.812;7.738;2023-07-22T16:12:31;24.90;99.90
3846;DHT22;1938;50.812;7.738;2023-07-22T16:14:57;25.00;99.90